This is the latest recevied weather packets stored in our database for station/object DM7LA-WX. If no packets are shown the sender has not sent any weather packets the latest 10 day(s).
| Time | Temp. | Humidity | Pressure | Rain* | Wind** | Luminosity | Snow |
|---|---|---|---|---|---|---|---|
| 1787525881 | 16.11° C | 68% | 1018.7 hPa | 0 mm | - | - | - |
| 1787522282 | 16.11° C | 69% | 1018.7 hPa | 0 mm | - | - | - |
| 1787518681 | 15.56° C | 67% | 1018.8 hPa | 0 mm | - | - | - |
| 1787515081 | 15.56° C | 74% | 1019.1 hPa | 0 mm | - | - | - |
| 1787511482 | 15.56° C | 74% | 1018.4 hPa | 0 mm | - | - | - |
| 1787507881 | 15.56° C | 74% | 1018.5 hPa | 0 mm | - | - | - |
| 1787504282 | 16.11° C | 71% | 1018.7 hPa | 0 mm | - | - | - |
| 1787500681 | 15.56° C | 76% | 1018.7 hPa | 0 mm | - | - | - |
| 1787497082 | 16.11° C | 69% | 1018.5 hPa | 0 mm | - | - | - |
| 1787493481 | 16.67° C | 68% | 1018.2 hPa | 0 mm | - | - | - |
| 1787489882 | 16.67° C | 70% | 1018.3 hPa | 0 mm | - | - | - |
| 1787486282 | 16.67° C | 68% | 1017.9 hPa | 0 mm | - | - | - |
| 1787482682 | 16.11° C | 71% | 1017.7 hPa | 0.25 mm | - | - | - |
| 1787479082 | 13.89° C | 84% | 1017.9 hPa | 0 mm | - | - | - |
| 1787475482 | 15° C | 73% | 1017.3 hPa | 0 mm | - | - | - |
| 1787471882 | 15.56° C | 73% | 1016.8 hPa | 0 mm | - | - | - |
| 1787468282 | 15° C | 74% | 1016.7 hPa | 0.25 mm | - | - | - |
| 1787464681 | 15° C | 76% | 1016.4 hPa | 0 mm | - | - | - |
| 1787461082 | 15.56° C | 65% | 1015.8 hPa | 0 mm | - | - | - |
| 1787457481 | 15.56° C | 65% | 1015.6 hPa | 0 mm | - | - | - |
| 1787453882 | 15° C | 73% | 1015.4 hPa | 0 mm | - | - | - |
| 1787450281 | 15° C | 69% | 1015.2 hPa | 0 mm | - | - | - |
| 1787446682 | 15° C | 67% | 1015 hPa | 0 mm | - | - | - |
| 1787443082 | 15° C | 74% | 1015.3 hPa | 0.25 mm | - | - | - |
| 1787439482 | 13.89° C | 80% | 1015.5 hPa | 0 mm | - | - | - |
* Rain latest hour (hover to see other rain measurements)
** Current wind speed in m/s (hover to see current wind gust speed)